createdAt,value
2022-10-24T00:02:10.732Z,-83
2022-10-24T00:04:41.890Z,-84
2022-10-24T00:07:12.753Z,-84
2022-10-24T00:09:41.257Z,-83
2022-10-24T00:12:10.066Z,-83
2022-10-24T00:14:41.117Z,-84
2022-10-24T00:17:09.611Z,-83
2022-10-24T00:19:38.122Z,-84
2022-10-24T00:22:06.612Z,-84
2022-10-24T00:24:36.441Z,-83
2022-10-24T00:27:04.991Z,-84
2022-10-24T00:29:33.638Z,-84
2022-10-24T00:32:02.078Z,-83
2022-10-24T00:34:33.444Z,-83
2022-10-24T00:37:01.923Z,-84
2022-10-24T00:39:30.514Z,-84
2022-10-24T00:42:00.670Z,-84
2022-10-24T00:44:32.859Z,-84
2022-10-24T00:47:06.416Z,-83
2022-10-24T00:49:45.362Z,-83
2022-10-24T00:52:18.161Z,-84
2022-10-24T00:54:48.769Z,-83
2022-10-24T00:57:26.288Z,-83
2022-10-24T01:00:00.723Z,-83
2022-10-24T01:02:29.310Z,-84
2022-10-24T01:04:58.052Z,-83
2022-10-24T01:07:47.731Z,-84
2022-10-24T01:10:39.575Z,-83
2022-10-24T01:13:26.668Z,-82
2022-10-24T01:16:07.126Z,-83
2022-10-24T01:18:43.433Z,-83
2022-10-24T01:21:28.775Z,-83
2022-10-24T01:24:27.260Z,-83
2022-10-24T01:27:38.054Z,-83
2022-10-24T01:30:14.041Z,-83
2022-10-24T01:32:55.144Z,-83
2022-10-24T01:35:37.153Z,-82
2022-10-24T01:38:17.200Z,-83
2022-10-24T01:40:54.432Z,-83
2022-10-24T01:43:28.422Z,-83
2022-10-24T01:46:05.816Z,-83
2022-10-24T01:48:41.473Z,-83
2022-10-24T01:51:13.697Z,-83
2022-10-24T01:53:45.035Z,-83
2022-10-24T01:56:13.524Z,-82
2022-10-24T01:58:41.983Z,-83
2022-10-24T02:01:17.591Z,-83
2022-10-24T02:03:52.047Z,-83
2022-10-24T02:06:29.547Z,-83
2022-10-24T02:11:41.405Z,-83
2022-10-24T02:14:18.133Z,-83
2022-10-24T02:16:48.949Z,-83
2022-10-24T02:19:18.582Z,-83
2022-10-24T02:21:56.806Z,-83
2022-10-24T02:24:32.781Z,-83
2022-10-24T02:27:10.964Z,-83
2022-10-24T02:29:46.861Z,-83
2022-10-24T02:32:23.945Z,-82
2022-10-24T02:34:52.950Z,-83
2022-10-24T02:37:23.389Z,-83
2022-10-24T02:39:54.136Z,-82
2022-10-24T02:42:24.898Z,-83
2022-10-24T02:44:54.110Z,-83
2022-10-24T02:47:28.042Z,-83
2022-10-24T02:49:57.116Z,-83
2022-10-24T02:52:26.642Z,-82
2022-10-24T02:54:55.088Z,-83
2022-10-24T02:57:25.236Z,-83
2022-10-24T02:59:53.792Z,-82
2022-10-24T03:02:24.764Z,-82
2022-10-24T03:04:53.245Z,-83
2022-10-24T03:07:21.896Z,-83
2022-10-24T03:09:50.386Z,-84
2022-10-24T03:12:19.692Z,-83
2022-10-24T03:14:48.145Z,-83
2022-10-24T03:17:16.589Z,-84
2022-10-24T03:19:46.401Z,-83
2022-10-24T03:22:14.878Z,-83
2022-10-24T03:24:44.543Z,-82
2022-10-24T03:27:23.393Z,-83
2022-10-24T03:29:51.805Z,-84
2022-10-24T03:32:20.460Z,-84
2022-10-24T03:34:50.353Z,-82
2022-10-24T03:37:19.290Z,-84
2022-10-24T03:39:48.144Z,-83
2022-10-24T03:42:16.609Z,-84
2022-10-24T03:44:45.041Z,-83
2022-10-24T03:47:13.841Z,-83
2022-10-24T03:49:42.267Z,-84
2022-10-24T03:52:12.243Z,-83
2022-10-24T03:54:40.906Z,-83
2022-10-24T03:57:10.889Z,-82
2022-10-24T03:59:39.966Z,-84
2022-10-24T04:02:08.547Z,-82
2022-10-24T04:04:37.227Z,-82
2022-10-24T04:07:05.998Z,-82
2022-10-24T04:09:36.191Z,-82
2022-10-24T04:12:05.439Z,-83
2022-10-24T04:14:33.975Z,-84
2022-10-24T04:17:02.507Z,-83
2022-10-24T04:19:31.058Z,-83
2022-10-24T04:21:59.629Z,-83
2022-10-24T04:24:28.538Z,-82
2022-10-24T04:26:58.434Z,-83
2022-10-24T04:29:26.928Z,-83
2022-10-24T04:31:55.659Z,-83
2022-10-24T04:34:25.217Z,-83
2022-10-24T04:36:53.781Z,-84
2022-10-24T04:39:22.393Z,-84
2022-10-24T04:41:50.831Z,-83
2022-10-24T04:44:20.688Z,-84
2022-10-24T04:46:51.332Z,-84
2022-10-24T04:49:20.318Z,-85
2022-10-24T04:51:48.872Z,-84
2022-10-24T04:54:17.342Z,-84
2022-10-24T04:56:46.051Z,-85
2022-10-24T04:59:14.645Z,-86
2022-10-24T05:01:45.327Z,-86
2022-10-24T05:04:13.886Z,-86
2022-10-24T05:06:44.225Z,-85
2022-10-24T05:09:13.673Z,-86
2022-10-24T05:11:42.985Z,-86
2022-10-24T05:14:11.546Z,-86
2022-10-24T05:16:40.608Z,-86
2022-10-24T05:19:10.496Z,-86
2022-10-24T05:21:38.982Z,-86
2022-10-24T05:24:07.668Z,-86
2022-10-24T05:26:36.180Z,-86
2022-10-24T05:29:04.807Z,-86
2022-10-24T05:31:34.127Z,-86
2022-10-24T05:34:03.031Z,-87
2022-10-24T05:36:33.117Z,-86
2022-10-24T05:39:01.712Z,-86
2022-10-24T05:41:30.296Z,-87
2022-10-24T05:43:58.902Z,-86
2022-10-24T05:46:27.801Z,-86
2022-10-24T05:48:56.341Z,-86
2022-10-24T05:51:24.941Z,-85
2022-10-24T05:53:54.854Z,-86
2022-10-24T05:56:23.448Z,-86
2022-10-24T05:58:52.200Z,-86
2022-10-24T06:01:21.010Z,-86
2022-10-24T06:03:50.644Z,-89
2022-10-24T06:06:19.344Z,-90
2022-10-24T06:08:48.088Z,-90
2022-10-24T06:11:18.804Z,-90
2022-10-24T06:13:48.062Z,-89
2022-10-24T06:16:16.754Z,-89
2022-10-24T06:18:45.820Z,-89
2022-10-24T06:21:16.012Z,-89
2022-10-24T06:23:44.706Z,-90
2022-10-24T06:26:14.764Z,-89
2022-10-24T06:28:45.192Z,-89
2022-10-24T06:31:14.275Z,-88
2022-10-24T06:33:43.012Z,-89
2022-10-24T06:36:14.548Z,-88
2022-10-24T06:38:43.279Z,-87
2022-10-24T06:41:15.174Z,-87
2022-10-24T06:43:45.704Z,-87
2022-10-24T06:46:17.634Z,-88
2022-10-24T06:48:46.177Z,-87
2022-10-24T06:51:17.269Z,-86
2022-10-24T06:53:46.081Z,-88
2022-10-24T06:56:15.116Z,-87
2022-10-24T06:58:45.563Z,-87
2022-10-24T07:01:18.561Z,-87
2022-10-24T07:03:48.807Z,-92
2022-10-24T07:06:20.537Z,-88
2022-10-24T07:08:49.237Z,-86
2022-10-24T07:11:17.791Z,-87
2022-10-24T07:13:48.019Z,-87
2022-10-24T07:16:17.327Z,-86
2022-10-24T07:18:46.794Z,-87
2022-10-24T07:21:19.754Z,-87
2022-10-24T07:23:48.800Z,-89
2022-10-24T07:26:18.242Z,-88
2022-10-24T07:28:53.593Z,-86
2022-10-24T07:31:25.085Z,-89
2022-10-24T07:33:54.682Z,-88
2022-10-24T07:36:26.099Z,-90
2022-10-24T07:38:57.467Z,-88
2022-10-24T07:41:28.931Z,-92
2022-10-24T07:44:02.232Z,-90
2022-10-24T07:46:35.693Z,-92
2022-10-24T07:49:04.699Z,-92
2022-10-24T07:51:33.521Z,-91
2022-10-24T07:54:02.530Z,-91
2022-10-24T07:56:31.450Z,-91
2022-10-24T07:59:09.006Z,-91
2022-10-24T08:01:42.962Z,-91
2022-10-24T08:04:13.907Z,-91
2022-10-24T08:06:43.000Z,-91
2022-10-24T08:09:11.917Z,-91
2022-10-24T08:11:41.935Z,-91
2022-10-24T08:14:12.140Z,-90
2022-10-24T08:16:43.408Z,-90
2022-10-24T08:19:15.280Z,-89
2022-10-24T08:21:44.135Z,-89
2022-10-24T08:24:12.950Z,-89
2022-10-24T08:26:41.780Z,-90
2022-10-24T08:29:14.625Z,-90
2022-10-24T08:31:43.781Z,-90
2022-10-24T08:34:14.659Z,-90
2022-10-24T08:36:44.152Z,-90
2022-10-24T08:39:13.155Z,-90
2022-10-24T08:50:07.900Z,-92
2022-10-24T08:53:14.961Z,-92
2022-10-24T08:56:13.692Z,-92
2022-10-24T08:58:49.374Z,-91
2022-10-24T09:01:35.032Z,-91
2022-10-24T09:04:34.934Z,-92
2022-10-24T09:15:31.726Z,-91
2022-10-24T09:18:01.774Z,-92
2022-10-24T09:20:38.464Z,-92
2022-10-24T09:23:56.921Z,-93
2022-10-24T09:27:32.513Z,-92
2022-10-24T09:30:04.911Z,-92
2022-10-24T09:32:39.023Z,-92
2022-10-24T09:35:13.285Z,-91
2022-10-24T09:37:49.782Z,-92
2022-10-24T09:40:25.358Z,-91
2022-10-24T09:43:06.451Z,-93
2022-10-24T09:45:45.499Z,-93
2022-10-24T09:48:26.188Z,-92
2022-10-24T09:51:00.191Z,-92
2022-10-24T09:53:39.714Z,-92
2022-10-24T09:56:13.497Z,-92
2022-10-24T09:58:43.802Z,-92
2022-10-24T10:01:22.895Z,-92
2022-10-24T10:04:09.406Z,-92
2022-10-24T10:06:47.834Z,-92
2022-10-24T10:09:31.492Z,-91
2022-10-24T10:12:03.009Z,-93
2022-10-24T10:14:33.173Z,-93
2022-10-24T10:17:06.263Z,-93
2022-10-24T10:19:39.360Z,-92
2022-10-24T10:22:25.024Z,-92
2022-10-24T10:24:56.402Z,-92
2022-10-24T10:27:36.440Z,-92
2022-10-24T10:30:21.463Z,-91
2022-10-24T10:33:15.549Z,-91
2022-10-24T10:35:52.873Z,-91
2022-10-24T10:38:51.000Z,-92
2022-10-24T10:41:49.510Z,-92
2022-10-24T10:44:53.869Z,-92
2022-10-24T10:47:36.992Z,-92
2022-10-24T10:50:29.006Z,-92
2022-10-24T10:53:16.218Z,-93
2022-10-24T10:55:59.326Z,-93
2022-10-24T10:58:47.139Z,-91
2022-10-24T11:01:31.518Z,-91
2022-10-24T11:04:09.302Z,-93
2022-10-24T11:06:50.977Z,-93
2022-10-24T11:09:37.822Z,-92
2022-10-24T11:12:16.503Z,-92
2022-10-24T11:14:52.825Z,-93
2022-10-24T11:17:26.856Z,-93
2022-10-24T11:20:07.897Z,-92
2022-10-24T11:22:43.314Z,-92
2022-10-24T11:25:26.996Z,-91
2022-10-24T11:28:07.526Z,-90
2022-10-24T11:30:52.934Z,-91
2022-10-24T11:33:27.244Z,-92
2022-10-24T11:36:09.437Z,-91
2022-10-24T11:38:47.999Z,-92
2022-10-24T11:41:44.422Z,-91
2022-10-24T11:44:40.096Z,-92
2022-10-24T11:47:39.479Z,-91
2022-10-24T11:50:25.542Z,-91
2022-10-24T11:53:04.784Z,-90
2022-10-24T11:55:42.708Z,-90
2022-10-24T11:58:18.095Z,-91
2022-10-24T12:01:31.290Z,-90
2022-10-24T12:04:53.593Z,-91
2022-10-24T12:08:08.457Z,-90
2022-10-24T12:10:57.669Z,-90
2022-10-24T12:13:51.550Z,-90
2022-10-24T12:16:38.715Z,-90
2022-10-24T12:19:14.911Z,-89
2022-10-24T12:21:52.971Z,-90
2022-10-24T12:24:30.298Z,-90
2022-10-24T12:27:03.103Z,-90
2022-10-24T12:29:35.800Z,-89
2022-10-24T12:32:31.561Z,-90
2022-10-24T12:35:28.817Z,-89
2022-10-24T12:37:52.683Z,-89
2022-10-24T12:40:55.894Z,-89
2022-10-24T12:43:36.427Z,-90
2022-10-24T12:46:55.840Z,-89
2022-10-24T12:49:33.802Z,-89
2022-10-24T12:52:57.796Z,-90
2022-10-24T12:56:14.319Z,-90
2022-10-24T12:58:46.602Z,-89
2022-10-24T13:01:29.797Z,-89
2022-10-24T13:07:52.201Z,-90
2022-10-24T13:10:44.256Z,-89
2022-10-24T13:13:52.514Z,-90
2022-10-24T13:16:37.243Z,-91
2022-10-24T13:19:17.894Z,-90
2022-10-24T13:21:50.540Z,-90
2022-10-24T13:24:29.652Z,-88
2022-10-24T13:27:29.923Z,-88
2022-10-24T13:30:26.970Z,-89
2022-10-24T13:33:44.342Z,-89
2022-10-24T13:36:27.948Z,-90
2022-10-24T13:39:00.902Z,-90
2022-10-24T13:41:34.732Z,-90
2022-10-24T13:44:10.895Z,-89
2022-10-24T13:46:50.239Z,-89
2022-10-24T13:49:29.968Z,-88
2022-10-24T13:52:09.449Z,-89
2022-10-24T13:54:40.685Z,-89
2022-10-24T13:57:30.898Z,-89
2022-10-24T14:00:02.123Z,-89
2022-10-24T14:02:39.940Z,-88
2022-10-24T14:05:19.153Z,-87
2022-10-24T14:07:49.076Z,-88
2022-10-24T14:10:19.835Z,-89
2022-10-24T14:12:52.135Z,-88
2022-10-24T14:15:25.902Z,-88
2022-10-24T14:18:02.799Z,-87
2022-10-24T14:20:35.496Z,-88
2022-10-24T14:23:16.353Z,-89
2022-10-24T14:25:45.158Z,-90
2022-10-24T14:28:20.610Z,-90
2022-10-24T14:30:57.211Z,-89
2022-10-24T14:33:29.716Z,-89
2022-10-24T14:36:03.218Z,-90
2022-10-24T14:38:32.742Z,-89
2022-10-24T14:41:09.144Z,-89
2022-10-24T14:43:42.296Z,-89
2022-10-24T14:46:36.573Z,-89
2022-10-24T14:49:33.361Z,-90
2022-10-24T14:52:13.744Z,-89
2022-10-24T14:54:52.577Z,-89
2022-10-24T14:57:24.337Z,-88
2022-10-24T14:59:55.758Z,-89
2022-10-24T15:02:28.581Z,-89
2022-10-24T15:05:33.666Z,-90
2022-10-24T15:08:25.617Z,-89
2022-10-24T15:11:21.941Z,-90
2022-10-24T15:14:06.694Z,-90
2022-10-24T15:16:40.805Z,-89
2022-10-24T15:19:18.214Z,-89
2022-10-24T15:21:49.165Z,-89
2022-10-24T15:24:25.241Z,-89
2022-10-24T15:27:10.183Z,-89
2022-10-24T15:29:40.867Z,-89
2022-10-24T15:32:12.474Z,-89
2022-10-24T15:34:42.351Z,-89
2022-10-24T15:37:21.342Z,-89
2022-10-24T15:39:50.775Z,-89
2022-10-24T15:42:22.363Z,-88
2022-10-24T15:44:51.542Z,-89
2022-10-24T15:47:23.908Z,-89
2022-10-24T15:49:52.867Z,-89
2022-10-24T15:52:22.974Z,-89
2022-10-24T15:54:51.610Z,-88
2022-10-24T15:57:20.990Z,-89
2022-10-24T15:59:49.730Z,-89
2022-10-24T16:02:24.087Z,-89
2022-10-24T16:04:52.969Z,-87
2022-10-24T16:07:23.097Z,-87
2022-10-24T16:09:51.766Z,-88
2022-10-24T16:12:20.330Z,-88
2022-10-24T16:14:49.256Z,-89
2022-10-24T16:17:17.925Z,-89
2022-10-24T16:19:46.510Z,-89
2022-10-24T16:22:16.722Z,-89
2022-10-24T16:24:46.785Z,-89
2022-10-24T16:27:15.521Z,-89
2022-10-24T16:29:44.131Z,-89
2022-10-24T16:32:13.478Z,-89
2022-10-24T16:34:42.160Z,-89
2022-10-24T16:37:10.704Z,-89
2022-10-24T16:39:39.382Z,-88
2022-10-24T16:42:09.750Z,-89
2022-10-24T16:44:38.560Z,-89
2022-10-24T16:47:10.035Z,-89
2022-10-24T16:49:38.746Z,-89
2022-10-24T16:52:08.049Z,-89
2022-10-24T16:54:36.714Z,-89
2022-10-24T16:57:05.902Z,-89
2022-10-24T16:59:36.030Z,-89
2022-10-24T17:02:04.850Z,-89
2022-10-24T17:04:33.921Z,-89
2022-10-24T17:07:04.466Z,-89
2022-10-24T17:09:33.217Z,-89
2022-10-24T17:12:02.083Z,-91
2022-10-24T17:14:31.408Z,-92
2022-10-24T17:17:01.710Z,-88
2022-10-24T17:19:30.820Z,-86
2022-10-24T17:21:59.793Z,-87
2022-10-24T17:24:28.995Z,-86
2022-10-24T17:26:57.890Z,-87
2022-10-24T17:29:30.506Z,-87
2022-10-24T17:32:01.709Z,-86
2022-10-24T17:34:32.949Z,-86
2022-10-24T17:37:08.194Z,-87
2022-10-24T17:39:48.760Z,-87
2022-10-24T17:42:17.956Z,-87
2022-10-24T17:44:47.822Z,-86
2022-10-24T17:47:18.307Z,-86
2022-10-24T17:49:47.026Z,-86
2022-10-24T17:52:23.118Z,-87
2022-10-24T17:54:52.458Z,-87
2022-10-24T17:57:21.175Z,-87
2022-10-24T17:59:49.758Z,-87
2022-10-24T18:02:20.334Z,-86
2022-10-24T18:04:49.042Z,-87
2022-10-24T18:07:17.617Z,-86
2022-10-24T18:09:46.251Z,-86
2022-10-24T18:12:15.286Z,-87
2022-10-24T18:14:43.785Z,-87
2022-10-24T18:17:12.498Z,-89
2022-10-24T18:19:42.505Z,-88
2022-10-24T18:22:11.072Z,-88
2022-10-24T18:24:39.915Z,-87
2022-10-24T18:27:10.388Z,-88
2022-10-24T18:32:08.193Z,-88
2022-10-24T18:34:36.739Z,-87
2022-10-24T18:37:06.774Z,-88
2022-10-24T18:39:35.932Z,-87
2022-10-24T18:42:12.494Z,-87
2022-10-24T18:44:41.726Z,-87
2022-10-24T18:47:20.704Z,-87
2022-10-24T18:49:52.643Z,-87
2022-10-24T18:52:41.062Z,-88
2022-10-24T18:55:18.900Z,-87
2022-10-24T18:57:49.677Z,-87
2022-10-24T19:00:21.728Z,-86
2022-10-24T19:02:59.610Z,-87
2022-10-24T19:05:44.547Z,-87
2022-10-24T19:08:22.022Z,-87
2022-10-24T19:10:54.530Z,-86
2022-10-24T19:13:24.311Z,-87
2022-10-24T19:15:58.691Z,-87
2022-10-24T19:18:29.953Z,-87
2022-10-24T19:20:59.506Z,-87
2022-10-24T19:23:30.008Z,-87
2022-10-24T19:25:58.772Z,-88
2022-10-24T19:28:27.431Z,-88
2022-10-24T19:30:57.263Z,-87
2022-10-24T19:33:28.140Z,-87
2022-10-24T19:35:56.778Z,-87
2022-10-24T19:38:25.609Z,-87
2022-10-24T19:40:58.457Z,-87
2022-10-24T19:43:32.145Z,-87
2022-10-24T19:46:19.369Z,-89
2022-10-24T19:48:49.704Z,-87
2022-10-24T19:51:20.177Z,-87
2022-10-24T19:53:49.784Z,-87
2022-10-24T19:56:25.073Z,-88
2022-10-24T19:58:55.371Z,-87
2022-10-24T20:01:26.892Z,-86
2022-10-24T20:03:56.901Z,-87
2022-10-24T20:06:27.643Z,-87
2022-10-24T20:08:56.286Z,-87
2022-10-24T20:11:26.467Z,-86
2022-10-24T20:13:55.129Z,-87
2022-10-24T20:16:24.089Z,-86
2022-10-24T20:18:53.638Z,-87
2022-10-24T20:21:22.512Z,-87
2022-10-24T20:23:51.442Z,-93
2022-10-24T20:26:22.752Z,-86
2022-10-24T20:28:55.531Z,-87
2022-10-24T20:31:27.091Z,-88
2022-10-24T20:34:04.950Z,-88
2022-10-24T20:36:38.172Z,-88
2022-10-24T20:39:08.001Z,-87
2022-10-24T20:41:37.309Z,-89
2022-10-24T20:44:07.914Z,-89
2022-10-24T20:46:36.774Z,-88
2022-10-24T20:49:06.215Z,-88
2022-10-24T20:51:35.026Z,-88
2022-10-24T20:54:03.849Z,-88
2022-10-24T20:56:32.419Z,-88
2022-10-24T20:59:02.043Z,-88
2022-10-24T21:01:32.704Z,-88
2022-10-24T21:04:01.652Z,-88
2022-10-24T21:06:32.776Z,-89
2022-10-24T21:11:34.755Z,-88
2022-10-24T21:14:06.212Z,-88
2022-10-24T21:16:36.848Z,-88
2022-10-24T21:19:06.302Z,-88
2022-10-24T21:21:34.958Z,-88
2022-10-24T21:24:06.888Z,-88
2022-10-24T21:26:38.432Z,-88
2022-10-24T21:29:14.536Z,-88
2022-10-24T21:31:52.394Z,-87
2022-10-24T21:34:21.667Z,-88
2022-10-24T21:36:50.559Z,-89
2022-10-24T21:39:19.609Z,-89
2022-10-24T21:41:48.215Z,-89
2022-10-24T21:44:16.849Z,-90
2022-10-24T21:46:45.594Z,-90
2022-10-24T21:49:15.872Z,-90
2022-10-24T21:51:46.577Z,-91
2022-10-24T21:54:19.992Z,-89
2022-10-24T21:56:49.033Z,-88
2022-10-24T21:59:20.797Z,-88
2022-10-24T22:01:52.019Z,-87
2022-10-24T22:04:22.319Z,-87
2022-10-24T22:06:51.093Z,-88
2022-10-24T22:09:24.179Z,-88
2022-10-24T22:11:54.557Z,-88
2022-10-24T22:14:23.288Z,-88
2022-10-24T22:16:52.051Z,-89
2022-10-24T22:19:22.507Z,-89
2022-10-24T22:21:52.654Z,-87
2022-10-24T22:24:24.668Z,-87
2022-10-24T22:26:53.987Z,-87
2022-10-24T22:29:25.379Z,-87
2022-10-24T22:31:54.991Z,-88
2022-10-24T22:34:27.126Z,-88
2022-10-24T22:37:21.087Z,-88
2022-10-24T22:39:50.494Z,-88
2022-10-24T22:42:20.464Z,-88
2022-10-24T22:44:51.019Z,-88
2022-10-24T22:47:53.421Z,-87
2022-10-24T22:50:51.457Z,-89
2022-10-24T22:53:23.141Z,-88
2022-10-24T22:56:12.634Z,-88
2022-10-24T22:58:43.933Z,-88
2022-10-24T23:01:25.966Z,-88
2022-10-24T23:04:08.689Z,-88
2022-10-24T23:06:50.098Z,-88
2022-10-24T23:09:18.954Z,-88
2022-10-24T23:11:48.366Z,-88
2022-10-24T23:14:17.980Z,-88
2022-10-24T23:16:54.360Z,-88
2022-10-24T23:19:27.107Z,-88
2022-10-24T23:22:04.124Z,-88
2022-10-24T23:24:33.244Z,-88
2022-10-24T23:27:36.071Z,-88
2022-10-24T23:30:14.380Z,-89
2022-10-24T23:32:44.109Z,-89
2022-10-24T23:35:17.928Z,-88
2022-10-24T23:37:51.302Z,-89
2022-10-24T23:40:32.863Z,-88
2022-10-24T23:43:04.029Z,-88
2022-10-24T23:45:41.486Z,-88
2022-10-24T23:48:26.891Z,-88
2022-10-24T23:51:11.182Z,-88
2022-10-24T23:53:51.424Z,-88
2022-10-24T23:56:23.740Z,-88
2022-10-24T23:58:53.237Z,-88
